sensor_id;sensor_type;location;lat;lon;timestamp;temperature;humidity
5834;DHT22;2943;48.012;10.968;2023-03-14T00:00:06;9.20;99.90
5834;DHT22;2943;48.012;10.968;2023-03-14T00:02:35;9.20;99.90
5834;DHT22;2943;48.012;10.968;2023-03-14T00:05:01;9.20;99.90
5834;DHT22;2943;48.012;10.968;2023-03-14T00:07:32;9.20;99.90
5834;DHT22;2943;48.012;10.968;2023-03-14T00:10:01;9.20;99.90
5834;DHT22;2943;48.012;10.968;2023-03-14T00:12:30;9.30;99.90
5834;DHT22;2943;48.012;10.968;2023-03-14T00:14:57;9.30;99.90
5834;DHT22;2943;48.012;10.968;2023-03-14T00:17:25;9.30;99.90
5834;DHT22;2943;48.012;10.968;2023-03-14T00:19:53;9.30;99.90
5834;DHT22;2943;48.012;10.968;2023-03-14T00:22:20;9.30;99.90
5834;DHT22;2943;48.012;10.968;2023-03-14T00:24:47;9.40;99.90
5834;DHT22;2943;48.012;10.968;2023-03-14T00:27:14;9.30;99.90
5834;DHT22;2943;48.012;10.968;2023-03-14T00:29:42;9.30;99.90
5834;DHT22;2943;48.012;10.968;2023-03-14T00:32:09;9.30;99.90
5834;DHT22;2943;48.012;10.968;2023-03-14T00:34:36;9.30;99.90
5834;DHT22;2943;48.012;10.968;2023-03-14T00:37:04;9.30;99.90
5834;DHT22;2943;48.012;10.968;2023-03-14T00:39:30;9.20;99.90
5834;DHT22;2943;48.012;10.968;2023-03-14T00:41:57;9.20;99.90
5834;DHT22;2943;48.012;10.968;2023-03-14T00:44:24;9.10;99.90
5834;DHT22;2943;48.012;10.968;2023-03-14T00:46:51;9.10;99.90
5834;DHT22;2943;48.012;10.968;2023-03-14T00:49:18;9.10;99.90
5834;DHT22;2943;48.012;10.968;2023-03-14T00:51:44;9.10;99.90
5834;DHT22;2943;48.012;10.968;2023-03-14T00:54:13;9.10;99.90
5834;DHT22;2943;48.012;10.968;2023-03-14T00:56:40;9.10;99.90
5834;DHT22;2943;48.012;10.968;2023-03-14T00:59:06;9.10;99.90
5834;DHT22;2943;48.012;10.968;2023-03-14T01:01:33;9.00;99.90
5834;DHT22;2943;48.012;10.968;2023-03-14T01:04:00;9.00;99.90
5834;DHT22;2943;48.012;10.968;2023-03-14T01:06:28;8.90;99.90
5834;DHT22;2943;48.012;10.968;2023-03-14T01:08:56;8.90;99.90
5834;DHT22;2943;48.012;10.968;2023-03-14T01:11:26;8.80;99.90
5834;DHT22;2943;48.012;10.968;2023-03-14T01:13:53;8.80;99.90
5834;DHT22;2943;48.012;10.968;2023-03-14T01:16:21;8.70;99.90
5834;DHT22;2943;48.012;10.968;2023-03-14T01:18:48;8.70;99.90
5834;DHT22;2943;48.012;10.968;2023-03-14T01:21:18;8.60;99.90
5834;DHT22;2943;48.012;10.968;2023-03-14T01:23:46;8.60;99.90
5834;DHT22;2943;48.012;10.968;2023-03-14T01:26:15;8.60;99.90
5834;DHT22;2943;48.012;10.968;2023-03-14T01:28:43;8.50;99.90
5834;DHT22;2943;48.012;10.968;2023-03-14T01:31:11;8.60;99.90
5834;DHT22;2943;48.012;10.968;2023-03-14T01:33:38;8.40;99.90
5834;DHT22;2943;48.012;10.968;2023-03-14T01:36:06;8.40;99.90
5834;DHT22;2943;48.012;10.968;2023-03-14T01:38:35;8.40;99.90
5834;DHT22;2943;48.012;10.968;2023-03-14T01:41:02;8.30;99.90
5834;DHT22;2943;48.012;10.968;2023-03-14T01:43:30;8.30;99.90
5834;DHT22;2943;48.012;10.968;2023-03-14T01:46:22;8.30;99.90
5834;DHT22;2943;48.012;10.968;2023-03-14T01:49:03;8.20;99.90
5834;DHT22;2943;48.012;10.968;2023-03-14T01:51:36;8.20;99.90
5834;DHT22;2943;48.012;10.968;2023-03-14T01:54:08;8.20;99.90
5834;DHT22;2943;48.012;10.968;2023-03-14T01:56:37;8.10;99.90
5834;DHT22;2943;48.012;10.968;2023-03-14T01:59:06;8.10;99.90
5834;DHT22;2943;48.012;10.968;2023-03-14T02:01:36;8.00;99.90
5834;DHT22;2943;48.012;10.968;2023-03-14T02:04:05;8.00;99.90
5834;DHT22;2943;48.012;10.968;2023-03-14T02:06:40;8.00;99.90
5834;DHT22;2943;48.012;10.968;2023-03-14T02:09:07;8.10;99.90
5834;DHT22;2943;48.012;10.968;2023-03-14T02:11:34;8.00;99.90
5834;DHT22;2943;48.012;10.968;2023-03-14T02:14:02;8.00;99.90
5834;DHT22;2943;48.012;10.968;2023-03-14T02:16:29;8.00;99.90
5834;DHT22;2943;48.012;10.968;2023-03-14T02:18:57;8.00;99.90
5834;DHT22;2943;48.012;10.968;2023-03-14T02:21:29;8.00;99.90
5834;DHT22;2943;48.012;10.968;2023-03-14T02:24:07;8.00;99.90
5834;DHT22;2943;48.012;10.968;2023-03-14T02:26:38;7.90;99.90
5834;DHT22;2943;48.012;10.968;2023-03-14T02:29:07;7.90;99.90
5834;DHT22;2943;48.012;10.968;2023-03-14T02:31:35;7.80;99.90
5834;DHT22;2943;48.012;10.968;2023-03-14T02:34:02;7.80;99.90
5834;DHT22;2943;48.012;10.968;2023-03-14T02:36:30;7.80;99.90
5834;DHT22;2943;48.012;10.968;2023-03-14T02:39:03;7.70;99.90
5834;DHT22;2943;48.012;10.968;2023-03-14T02:41:32;7.70;99.90
5834;DHT22;2943;48.012;10.968;2023-03-14T02:43:59;7.60;99.90
5834;DHT22;2943;48.012;10.968;2023-03-14T02:46:27;7.60;99.90
5834;DHT22;2943;48.012;10.968;2023-03-14T02:48:57;7.60;99.90
5834;DHT22;2943;48.012;10.968;2023-03-14T02:51:26;7.50;99.90
5834;DHT22;2943;48.012;10.968;2023-03-14T02:53:53;7.50;99.90
5834;DHT22;2943;48.012;10.968;2023-03-14T02:56:20;7.50;99.90
5834;DHT22;2943;48.012;10.968;2023-03-14T02:58:46;7.50;99.90
5834;DHT22;2943;48.012;10.968;2023-03-14T03:01:13;7.50;99.90
5834;DHT22;2943;48.012;10.968;2023-03-14T03:03:41;7.40;99.90
5834;DHT22;2943;48.012;10.968;2023-03-14T03:06:08;7.40;99.90
5834;DHT22;2943;48.012;10.968;2023-03-14T03:08:35;7.40;99.90
5834;DHT22;2943;48.012;10.968;2023-03-14T03:11:04;7.40;99.90
5834;DHT22;2943;48.012;10.968;2023-03-14T03:13:31;7.30;99.90
5834;DHT22;2943;48.012;10.968;2023-03-14T03:15:58;7.30;99.90
5834;DHT22;2943;48.012;10.968;2023-03-14T03:18:25;7.30;99.90
5834;DHT22;2943;48.012;10.968;2023-03-14T03:20:53;7.30;99.90
5834;DHT22;2943;48.012;10.968;2023-03-14T03:23:20;7.30;99.90
5834;DHT22;2943;48.012;10.968;2023-03-14T03:25:50;7.30;99.90
5834;DHT22;2943;48.012;10.968;2023-03-14T03:28:17;7.30;99.90
5834;DHT22;2943;48.012;10.968;2023-03-14T03:30:44;7.20;99.90
5834;DHT22;2943;48.012;10.968;2023-03-14T03:33:12;7.20;99.90
5834;DHT22;2943;48.012;10.968;2023-03-14T03:35:43;7.30;99.90
5834;DHT22;2943;48.012;10.968;2023-03-14T03:38:12;7.30;99.90
5834;DHT22;2943;48.012;10.968;2023-03-14T03:40:39;7.30;99.90
5834;DHT22;2943;48.012;10.968;2023-03-14T03:43:06;7.20;99.90
5834;DHT22;2943;48.012;10.968;2023-03-14T03:45:33;7.20;99.90
5834;DHT22;2943;48.012;10.968;2023-03-14T03:48:00;7.20;99.90
5834;DHT22;2943;48.012;10.968;2023-03-14T03:50:27;7.20;99.90
5834;DHT22;2943;48.012;10.968;2023-03-14T03:52:53;7.20;99.90
5834;DHT22;2943;48.012;10.968;2023-03-14T03:55:22;7.20;99.90
5834;DHT22;2943;48.012;10.968;2023-03-14T03:57:48;7.20;99.90
5834;DHT22;2943;48.012;10.968;2023-03-14T04:00:15;7.20;99.90
5834;DHT22;2943;48.012;10.968;2023-03-14T04:02:43;7.20;99.90
5834;DHT22;2943;48.012;10.968;2023-03-14T04:05:09;7.10;99.90
5834;DHT22;2943;48.012;10.968;2023-03-14T04:07:36;7.10;99.90
5834;DHT22;2943;48.012;10.968;2023-03-14T04:10:03;7.10;99.90
5834;DHT22;2943;48.012;10.968;2023-03-14T04:12:31;7.10;99.90
5834;DHT22;2943;48.012;10.968;2023-03-14T04:14:58;7.10;99.90
5834;DHT22;2943;48.012;10.968;2023-03-14T04:17:25;7.10;99.90
5834;DHT22;2943;48.012;10.968;2023-03-14T04:19:52;7.10;99.90
5834;DHT22;2943;48.012;10.968;2023-03-14T04:22:19;7.10;99.90
5834;DHT22;2943;48.012;10.968;2023-03-14T04:24:46;7.10;99.90
5834;DHT22;2943;48.012;10.968;2023-03-14T04:27:13;7.00;99.90
5834;DHT22;2943;48.012;10.968;2023-03-14T04:29:42;7.00;99.90
5834;DHT22;2943;48.012;10.968;2023-03-14T04:32:09;7.00;99.90
5834;DHT22;2943;48.012;10.968;2023-03-14T04:34:36;7.00;99.90
5834;DHT22;2943;48.012;10.968;2023-03-14T04:37:03;7.00;99.90
5834;DHT22;2943;48.012;10.968;2023-03-14T04:39:30;7.00;99.90
5834;DHT22;2943;48.012;10.968;2023-03-14T04:41:57;7.00;99.90
5834;DHT22;2943;48.012;10.968;2023-03-14T04:44:24;7.00;99.90
5834;DHT22;2943;48.012;10.968;2023-03-14T04:46:52;7.00;99.90
5834;DHT22;2943;48.012;10.968;2023-03-14T04:49:19;7.00;99.90
5834;DHT22;2943;48.012;10.968;2023-03-14T04:51:46;7.00;99.90
5834;DHT22;2943;48.012;10.968;2023-03-14T04:54:12;7.00;99.90
5834;DHT22;2943;48.012;10.968;2023-03-14T04:56:39;7.00;99.90
5834;DHT22;2943;48.012;10.968;2023-03-14T04:59:06;7.00;99.90
5834;DHT22;2943;48.012;10.968;2023-03-14T05:01:33;7.00;99.90
5834;DHT22;2943;48.012;10.968;2023-03-14T05:04:02;7.00;99.90
5834;DHT22;2943;48.012;10.968;2023-03-14T05:06:28;7.00;99.90
5834;DHT22;2943;48.012;10.968;2023-03-14T05:08:55;7.00;99.90
5834;DHT22;2943;48.012;10.968;2023-03-14T05:11:22;7.00;99.90
5834;DHT22;2943;48.012;10.968;2023-03-14T05:13:49;6.90;99.90
5834;DHT22;2943;48.012;10.968;2023-03-14T05:16:15;6.90;99.90
5834;DHT22;2943;48.012;10.968;2023-03-14T05:18:42;7.00;99.90
5834;DHT22;2943;48.012;10.968;2023-03-14T05:21:10;7.00;99.90
5834;DHT22;2943;48.012;10.968;2023-03-14T05:23:37;6.90;99.90
5834;DHT22;2943;48.012;10.968;2023-03-14T05:26:04;6.90;99.90
5834;DHT22;2943;48.012;10.968;2023-03-14T05:28:31;6.90;99.90
5834;DHT22;2943;48.012;10.968;2023-03-14T05:30:58;7.00;99.90
5834;DHT22;2943;48.012;10.968;2023-03-14T05:33:25;7.00;99.90
5834;DHT22;2943;48.012;10.968;2023-03-14T05:35:51;7.00;99.90
5834;DHT22;2943;48.012;10.968;2023-03-14T05:38:19;7.00;99.90
5834;DHT22;2943;48.012;10.968;2023-03-14T05:40:47;7.00;99.90
5834;DHT22;2943;48.012;10.968;2023-03-14T05:43:14;7.00;99.90
5834;DHT22;2943;48.012;10.968;2023-03-14T05:45:42;6.90;99.90
5834;DHT22;2943;48.012;10.968;2023-03-14T05:48:09;6.90;99.90
5834;DHT22;2943;48.012;10.968;2023-03-14T05:50:36;6.90;99.90
5834;DHT22;2943;48.012;10.968;2023-03-14T05:53:02;6.90;99.90
5834;DHT22;2943;48.012;10.968;2023-03-14T05:55:31;6.90;99.90
5834;DHT22;2943;48.012;10.968;2023-03-14T05:57:57;6.90;99.90
5834;DHT22;2943;48.012;10.968;2023-03-14T06:00:24;6.80;99.90
5834;DHT22;2943;48.012;10.968;2023-03-14T06:02:51;6.80;99.90
5834;DHT22;2943;48.012;10.968;2023-03-14T06:05:18;6.90;99.90
5834;DHT22;2943;48.012;10.968;2023-03-14T06:07:45;6.90;99.90
5834;DHT22;2943;48.012;10.968;2023-03-14T06:10:11;6.90;99.90
5834;DHT22;2943;48.012;10.968;2023-03-14T06:12:39;6.90;99.90
5834;DHT22;2943;48.012;10.968;2023-03-14T06:15:07;6.90;99.90
5834;DHT22;2943;48.012;10.968;2023-03-14T06:17:34;6.90;99.90
5834;DHT22;2943;48.012;10.968;2023-03-14T06:20:01;7.00;99.90
5834;DHT22;2943;48.012;10.968;2023-03-14T06:22:28;7.00;99.90
5834;DHT22;2943;48.012;10.968;2023-03-14T06:24:55;7.00;99.90
5834;DHT22;2943;48.012;10.968;2023-03-14T06:27:21;7.00;99.90
5834;DHT22;2943;48.012;10.968;2023-03-14T06:29:49;7.00;99.90
5834;DHT22;2943;48.012;10.968;2023-03-14T06:32:16;7.00;99.90
5834;DHT22;2943;48.012;10.968;2023-03-14T06:34:43;7.10;99.90
5834;DHT22;2943;48.012;10.968;2023-03-14T06:37:10;7.10;99.90
5834;DHT22;2943;48.012;10.968;2023-03-14T06:39:37;7.10;99.90
5834;DHT22;2943;48.012;10.968;2023-03-14T06:42:04;7.10;99.90
5834;DHT22;2943;48.012;10.968;2023-03-14T06:44:31;7.20;99.90
5834;DHT22;2943;48.012;10.968;2023-03-14T06:46:59;7.10;99.90
5834;DHT22;2943;48.012;10.968;2023-03-14T06:49:26;7.00;99.90
5834;DHT22;2943;48.012;10.968;2023-03-14T06:51:53;7.00;99.90
5834;DHT22;2943;48.012;10.968;2023-03-14T06:54:20;7.00;99.90
5834;DHT22;2943;48.012;10.968;2023-03-14T06:56:47;7.00;99.90
5834;DHT22;2943;48.012;10.968;2023-03-14T06:59:13;7.00;99.90
5834;DHT22;2943;48.012;10.968;2023-03-14T07:01:40;7.00;99.90
5834;DHT22;2943;48.012;10.968;2023-03-14T07:04:09;7.00;99.90
5834;DHT22;2943;48.012;10.968;2023-03-14T07:06:36;7.10;99.90
5834;DHT22;2943;48.012;10.968;2023-03-14T07:09:03;7.10;99.90
5834;DHT22;2943;48.012;10.968;2023-03-14T07:11:30;7.10;99.90
5834;DHT22;2943;48.012;10.968;2023-03-14T07:13:57;7.10;99.90
5834;DHT22;2943;48.012;10.968;2023-03-14T07:16:24;7.10;99.90
5834;DHT22;2943;48.012;10.968;2023-03-14T07:18:54;7.10;99.90
5834;DHT22;2943;48.012;10.968;2023-03-14T07:21:22;7.10;99.90
5834;DHT22;2943;48.012;10.968;2023-03-14T07:23:49;7.10;99.90
5834;DHT22;2943;48.012;10.968;2023-03-14T07:26:16;7.10;99.90
5834;DHT22;2943;48.012;10.968;2023-03-14T07:28:42;7.10;99.90
5834;DHT22;2943;48.012;10.968;2023-03-14T07:31:09;7.10;99.90
5834;DHT22;2943;48.012;10.968;2023-03-14T07:33:37;7.20;99.90
5834;DHT22;2943;48.012;10.968;2023-03-14T07:36:04;7.30;99.90
5834;DHT22;2943;48.012;10.968;2023-03-14T07:38:32;7.40;99.90
5834;DHT22;2943;48.012;10.968;2023-03-14T07:40:59;7.50;99.90
5834;DHT22;2943;48.012;10.968;2023-03-14T07:43:27;7.50;99.90
5834;DHT22;2943;48.012;10.968;2023-03-14T07:45:54;7.50;99.90
5834;DHT22;2943;48.012;10.968;2023-03-14T07:48:21;7.50;99.90
5834;DHT22;2943;48.012;10.968;2023-03-14T07:50:51;7.50;99.90
5834;DHT22;2943;48.012;10.968;2023-03-14T07:53:18;7.50;99.90
5834;DHT22;2943;48.012;10.968;2023-03-14T07:55:46;7.60;99.90
5834;DHT22;2943;48.012;10.968;2023-03-14T07:58:14;7.70;99.90
5834;DHT22;2943;48.012;10.968;2023-03-14T08:00:41;7.80;99.90
5834;DHT22;2943;48.012;10.968;2023-03-14T08:03:08;7.80;99.90
5834;DHT22;2943;48.012;10.968;2023-03-14T08:05:35;7.90;99.90
5834;DHT22;2943;48.012;10.968;2023-03-14T08:08:02;7.80;99.90
5834;DHT22;2943;48.012;10.968;2023-03-14T08:10:29;7.90;99.90
5834;DHT22;2943;48.012;10.968;2023-03-14T08:12:59;7.90;99.90
5834;DHT22;2943;48.012;10.968;2023-03-14T08:15:28;7.90;99.90
5834;DHT22;2943;48.012;10.968;2023-03-14T08:17:56;8.00;99.90
5834;DHT22;2943;48.012;10.968;2023-03-14T08:20:24;8.00;99.90
5834;DHT22;2943;48.012;10.968;2023-03-14T08:22:52;8.00;99.90
5834;DHT22;2943;48.012;10.968;2023-03-14T08:25:18;8.10;99.90
5834;DHT22;2943;48.012;10.968;2023-03-14T08:27:45;8.10;99.90
5834;DHT22;2943;48.012;10.968;2023-03-14T08:30:15;8.10;99.90
5834;DHT22;2943;48.012;10.968;2023-03-14T08:32:43;8.20;99.90
5834;DHT22;2943;48.012;10.968;2023-03-14T08:35:10;8.20;99.90
5834;DHT22;2943;48.012;10.968;2023-03-14T08:37:37;8.20;99.90
5834;DHT22;2943;48.012;10.968;2023-03-14T08:40:05;8.20;99.90
5834;DHT22;2943;48.012;10.968;2023-03-14T08:42:32;8.30;99.90
5834;DHT22;2943;48.012;10.968;2023-03-14T08:44:59;8.30;99.90
5834;DHT22;2943;48.012;10.968;2023-03-14T08:47:27;8.40;99.90
5834;DHT22;2943;48.012;10.968;2023-03-14T08:49:54;8.40;99.90
5834;DHT22;2943;48.012;10.968;2023-03-14T08:52:21;8.40;99.90
5834;DHT22;2943;48.012;10.968;2023-03-14T08:54:48;8.50;99.90
5834;DHT22;2943;48.012;10.968;2023-03-14T08:57:15;8.50;99.90
5834;DHT22;2943;48.012;10.968;2023-03-14T08:59:42;8.50;99.90
5834;DHT22;2943;48.012;10.968;2023-03-14T09:02:09;8.60;99.90
5834;DHT22;2943;48.012;10.968;2023-03-14T09:04:38;8.50;99.90
5834;DHT22;2943;48.012;10.968;2023-03-14T09:07:05;8.60;99.90
5834;DHT22;2943;48.012;10.968;2023-03-14T09:09:32;8.70;99.90
5834;DHT22;2943;48.012;10.968;2023-03-14T09:11:59;8.70;99.90
5834;DHT22;2943;48.012;10.968;2023-03-14T09:14:25;8.80;99.90
5834;DHT22;2943;48.012;10.968;2023-03-14T09:16:52;8.80;99.90
5834;DHT22;2943;48.012;10.968;2023-03-14T09:19:21;8.80;99.90
5834;DHT22;2943;48.012;10.968;2023-03-14T09:21:49;8.90;99.90
5834;DHT22;2943;48.012;10.968;2023-03-14T09:24:16;9.00;99.90
5834;DHT22;2943;48.012;10.968;2023-03-14T09:26:43;9.00;99.90
5834;DHT22;2943;48.012;10.968;2023-03-14T09:29:10;9.00;99.90
5834;DHT22;2943;48.012;10.968;2023-03-14T09:31:36;9.10;99.90
5834;DHT22;2943;48.012;10.968;2023-03-14T09:34:03;9.10;99.90
5834;DHT22;2943;48.012;10.968;2023-03-14T09:36:30;9.20;99.90
5834;DHT22;2943;48.012;10.968;2023-03-14T09:38:58;9.30;99.90
5834;DHT22;2943;48.012;10.968;2023-03-14T09:41:27;9.40;99.90
5834;DHT22;2943;48.012;10.968;2023-03-14T09:44:01;9.50;99.90
5834;DHT22;2943;48.012;10.968;2023-03-14T09:46:29;9.50;99.90
5834;DHT22;2943;48.012;10.968;2023-03-14T09:48:56;9.60;99.90
5834;DHT22;2943;48.012;10.968;2023-03-14T09:51:24;9.70;99.90
5834;DHT22;2943;48.012;10.968;2023-03-14T09:53:51;9.80;99.90
5834;DHT22;2943;48.012;10.968;2023-03-14T09:56:21;9.90;99.90
5834;DHT22;2943;48.012;10.968;2023-03-14T09:58:52;10.10;99.90
5834;DHT22;2943;48.012;10.968;2023-03-14T10:01:25;10.20;99.90
5834;DHT22;2943;48.012;10.968;2023-03-14T10:03:54;10.30;99.90
5834;DHT22;2943;48.012;10.968;2023-03-14T10:06:24;10.40;99.90
5834;DHT22;2943;48.012;10.968;2023-03-14T10:08:52;10.50;99.90
5834;DHT22;2943;48.012;10.968;2023-03-14T10:11:20;10.60;99.90
5834;DHT22;2943;48.012;10.968;2023-03-14T10:13:50;10.70;99.90
5834;DHT22;2943;48.012;10.968;2023-03-14T10:16:29;10.70;99.90
5834;DHT22;2943;48.012;10.968;2023-03-14T10:19:01;10.80;99.90
5834;DHT22;2943;48.012;10.968;2023-03-14T10:21:30;10.80;99.90
5834;DHT22;2943;48.012;10.968;2023-03-14T10:24:08;10.90;99.90
5834;DHT22;2943;48.012;10.968;2023-03-14T10:26:37;11.00;99.90
5834;DHT22;2943;48.012;10.968;2023-03-14T10:29:08;11.00;99.90
5834;DHT22;2943;48.012;10.968;2023-03-14T10:31:47;11.10;99.90
5834;DHT22;2943;48.012;10.968;2023-03-14T10:34:17;11.10;99.90
5834;DHT22;2943;48.012;10.968;2023-03-14T10:36:52;11.10;99.90
5834;DHT22;2943;48.012;10.968;2023-03-14T10:39:25;11.10;99.90
5834;DHT22;2943;48.012;10.968;2023-03-14T10:41:55;11.10;99.90
5834;DHT22;2943;48.012;10.968;2023-03-14T10:44:28;11.00;99.90
5834;DHT22;2943;48.012;10.968;2023-03-14T10:46:59;10.90;99.90
5834;DHT22;2943;48.012;10.968;2023-03-14T10:49:28;10.90;99.90
5834;DHT22;2943;48.012;10.968;2023-03-14T10:51:56;10.90;99.90
5834;DHT22;2943;48.012;10.968;2023-03-14T10:54:30;11.00;99.90
5834;DHT22;2943;48.012;10.968;2023-03-14T10:56:59;11.00;99.90
5834;DHT22;2943;48.012;10.968;2023-03-14T10:59:36;11.10;99.90
5834;DHT22;2943;48.012;10.968;2023-03-14T11:02:15;11.10;99.90
5834;DHT22;2943;48.012;10.968;2023-03-14T11:04:57;11.00;99.90
5834;DHT22;2943;48.012;10.968;2023-03-14T11:07:34;10.70;99.90
5834;DHT22;2943;48.012;10.968;2023-03-14T11:10:11;10.70;99.90
5834;DHT22;2943;48.012;10.968;2023-03-14T11:12:53;10.80;99.90
5834;DHT22;2943;48.012;10.968;2023-03-14T11:15:27;10.90;99.90
5834;DHT22;2943;48.012;10.968;2023-03-14T11:18:12;11.00;99.90
5834;DHT22;2943;48.012;10.968;2023-03-14T11:20:45;11.10;99.90
5834;DHT22;2943;48.012;10.968;2023-03-14T11:23:16;11.30;99.90
5834;DHT22;2943;48.012;10.968;2023-03-14T11:25:47;11.20;99.90
5834;DHT22;2943;48.012;10.968;2023-03-14T11:28:23;11.30;99.90
5834;DHT22;2943;48.012;10.968;2023-03-14T11:30:53;11.20;99.90
5834;DHT22;2943;48.012;10.968;2023-03-14T11:33:24;11.20;99.90
5834;DHT22;2943;48.012;10.968;2023-03-14T11:35:58;11.20;99.90
5834;DHT22;2943;48.012;10.968;2023-03-14T11:38:31;11.10;99.90
5834;DHT22;2943;48.012;10.968;2023-03-14T11:40:59;11.10;99.90
5834;DHT22;2943;48.012;10.968;2023-03-14T11:43:29;11.10;99.90
5834;DHT22;2943;48.012;10.968;2023-03-14T11:46:01;11.10;99.90
5834;DHT22;2943;48.012;10.968;2023-03-14T11:48:37;11.10;99.90
5834;DHT22;2943;48.012;10.968;2023-03-14T11:51:09;11.10;99.90
5834;DHT22;2943;48.012;10.968;2023-03-14T11:53:47;11.10;99.90
5834;DHT22;2943;48.012;10.968;2023-03-14T11:56:20;11.00;99.90
5834;DHT22;2943;48.012;10.968;2023-03-14T11:58:57;11.00;99.90
5834;DHT22;2943;48.012;10.968;2023-03-14T12:01:34;11.10;99.90
5834;DHT22;2943;48.012;10.968;2023-03-14T12:04:09;11.10;99.90
5834;DHT22;2943;48.012;10.968;2023-03-14T12:06:46;11.00;99.90
5834;DHT22;2943;48.012;10.968;2023-03-14T12:09:13;11.00;99.90
5834;DHT22;2943;48.012;10.968;2023-03-14T12:11:46;11.00;99.90
5834;DHT22;2943;48.012;10.968;2023-03-14T12:14:23;11.00;99.90
5834;DHT22;2943;48.012;10.968;2023-03-14T12:16:54;10.90;99.90
5834;DHT22;2943;48.012;10.968;2023-03-14T12:19:31;10.80;99.90
5834;DHT22;2943;48.012;10.968;2023-03-14T12:22:08;10.80;99.90
5834;DHT22;2943;48.012;10.968;2023-03-14T12:24:45;10.80;99.90
5834;DHT22;2943;48.012;10.968;2023-03-14T12:27:40;10.70;99.90
5834;DHT22;2943;48.012;10.968;2023-03-14T12:30:18;10.60;99.90
5834;DHT22;2943;48.012;10.968;2023-03-14T12:36:04;10.60;99.90
5834;DHT22;2943;48.012;10.968;2023-03-14T12:38:55;10.50;99.90
5834;DHT22;2943;48.012;10.968;2023-03-14T12:41:28;10.50;99.90
5834;DHT22;2943;48.012;10.968;2023-03-14T12:43:55;10.60;99.90
5834;DHT22;2943;48.012;10.968;2023-03-14T12:46:25;10.50;99.90
5834;DHT22;2943;48.012;10.968;2023-03-14T12:48:56;10.40;99.90
5834;DHT22;2943;48.012;10.968;2023-03-14T12:51:35;10.30;99.90
5834;DHT22;2943;48.012;10.968;2023-03-14T12:54:27;10.40;99.90
5834;DHT22;2943;48.012;10.968;2023-03-14T12:57:06;10.30;99.90
5834;DHT22;2943;48.012;10.968;2023-03-14T12:59:35;10.20;99.90
5834;DHT22;2943;48.012;10.968;2023-03-14T13:02:24;10.00;99.90
5834;DHT22;2943;48.012;10.968;2023-03-14T13:04:59;9.90;99.90
5834;DHT22;2943;48.012;10.968;2023-03-14T13:07:38;9.80;99.90
5834;DHT22;2943;48.012;10.968;2023-03-14T13:10:23;9.60;99.90
5834;DHT22;2943;48.012;10.968;2023-03-14T13:12:54;9.40;99.90
5834;DHT22;2943;48.012;10.968;2023-03-14T13:15:29;9.20;99.90
5834;DHT22;2943;48.012;10.968;2023-03-14T13:18:01;9.10;99.90
5834;DHT22;2943;48.012;10.968;2023-03-14T13:20:31;9.00;99.90
5834;DHT22;2943;48.012;10.968;2023-03-14T13:22:58;8.90;99.90
5834;DHT22;2943;48.012;10.968;2023-03-14T13:25:29;8.70;99.90
5834;DHT22;2943;48.012;10.968;2023-03-14T13:27:56;8.60;99.90
5834;DHT22;2943;48.012;10.968;2023-03-14T13:30:25;8.40;99.90
5834;DHT22;2943;48.012;10.968;2023-03-14T13:32:54;8.30;99.90
5834;DHT22;2943;48.012;10.968;2023-03-14T13:35:25;8.10;99.90
5834;DHT22;2943;48.012;10.968;2023-03-14T13:37:55;8.00;99.90
5834;DHT22;2943;48.012;10.968;2023-03-14T13:40:26;7.90;99.90
5834;DHT22;2943;48.012;10.968;2023-03-14T13:43:15;7.90;99.90
5834;DHT22;2943;48.012;10.968;2023-03-14T13:45:51;7.80;99.90
5834;DHT22;2943;48.012;10.968;2023-03-14T13:48:19;7.70;99.90
5834;DHT22;2943;48.012;10.968;2023-03-14T13:50:56;7.70;99.90
5834;DHT22;2943;48.012;10.968;2023-03-14T13:53:25;7.60;99.90
5834;DHT22;2943;48.012;10.968;2023-03-14T13:55:52;7.50;99.90
5834;DHT22;2943;48.012;10.968;2023-03-14T13:58:27;7.30;99.90
5834;DHT22;2943;48.012;10.968;2023-03-14T14:01:00;7.20;99.90
5834;DHT22;2943;48.012;10.968;2023-03-14T14:03:28;7.10;99.90
5834;DHT22;2943;48.012;10.968;2023-03-14T14:05:58;7.00;99.90
5834;DHT22;2943;48.012;10.968;2023-03-14T14:08:25;6.80;99.90
5834;DHT22;2943;48.012;10.968;2023-03-14T14:10:57;6.70;99.90
5834;DHT22;2943;48.012;10.968;2023-03-14T14:13:25;6.60;99.90
5834;DHT22;2943;48.012;10.968;2023-03-14T14:15:54;6.50;99.90
5834;DHT22;2943;48.012;10.968;2023-03-14T14:18:24;6.40;99.90
5834;DHT22;2943;48.012;10.968;2023-03-14T14:20:53;6.30;99.90
5834;DHT22;2943;48.012;10.968;2023-03-14T14:23:24;6.30;99.90
5834;DHT22;2943;48.012;10.968;2023-03-14T14:25:52;6.20;99.90
5834;DHT22;2943;48.012;10.968;2023-03-14T14:28:25;6.20;99.90
5834;DHT22;2943;48.012;10.968;2023-03-14T14:31:00;6.10;99.90
5834;DHT22;2943;48.012;10.968;2023-03-14T14:33:27;6.00;99.90
5834;DHT22;2943;48.012;10.968;2023-03-14T14:35:57;6.00;99.90
5834;DHT22;2943;48.012;10.968;2023-03-14T14:38:26;6.00;99.90
5834;DHT22;2943;48.012;10.968;2023-03-14T14:40:58;6.00;99.90
5834;DHT22;2943;48.012;10.968;2023-03-14T14:43:27;6.00;99.90
5834;DHT22;2943;48.012;10.968;2023-03-14T14:45:55;6.00;99.90
5834;DHT22;2943;48.012;10.968;2023-03-14T14:48:24;6.00;99.90
5834;DHT22;2943;48.012;10.968;2023-03-14T14:50:57;6.10;99.90
5834;DHT22;2943;48.012;10.968;2023-03-14T14:53:29;6.10;99.90
5834;DHT22;2943;48.012;10.968;2023-03-14T14:55:58;6.10;99.90
5834;DHT22;2943;48.012;10.968;2023-03-14T14:58:28;6.10;99.90
5834;DHT22;2943;48.012;10.968;2023-03-14T15:00:57;6.10;99.90
5834;DHT22;2943;48.012;10.968;2023-03-14T15:03:27;6.20;99.90
5834;DHT22;2943;48.012;10.968;2023-03-14T15:05:55;6.20;99.90
5834;DHT22;2943;48.012;10.968;2023-03-14T15:08:22;6.30;99.90
5834;DHT22;2943;48.012;10.968;2023-03-14T15:10:51;6.30;99.90
5834;DHT22;2943;48.012;10.968;2023-03-14T15:13:18;6.30;99.90
5834;DHT22;2943;48.012;10.968;2023-03-14T15:15:45;6.30;99.90
5834;DHT22;2943;48.012;10.968;2023-03-14T15:18:14;6.30;99.90
5834;DHT22;2943;48.012;10.968;2023-03-14T15:20:41;6.30;99.90
5834;DHT22;2943;48.012;10.968;2023-03-14T15:23:10;6.20;99.90
5834;DHT22;2943;48.012;10.968;2023-03-14T15:25:36;6.20;99.90
5834;DHT22;2943;48.012;10.968;2023-03-14T15:28:13;6.20;99.90
5834;DHT22;2943;48.012;10.968;2023-03-14T15:30:40;6.20;99.90
5834;DHT22;2943;48.012;10.968;2023-03-14T15:33:07;6.30;99.90
5834;DHT22;2943;48.012;10.968;2023-03-14T15:35:34;6.30;99.90
5834;DHT22;2943;48.012;10.968;2023-03-14T15:38:01;6.30;99.90
5834;DHT22;2943;48.012;10.968;2023-03-14T15:40:28;6.30;99.90
5834;DHT22;2943;48.012;10.968;2023-03-14T15:42:55;6.30;99.90
5834;DHT22;2943;48.012;10.968;2023-03-14T15:45:24;6.30;99.90
5834;DHT22;2943;48.012;10.968;2023-03-14T15:47:50;6.40;99.90
5834;DHT22;2943;48.012;10.968;2023-03-14T15:50:17;6.40;99.90
5834;DHT22;2943;48.012;10.968;2023-03-14T15:52:44;6.40;99.90
5834;DHT22;2943;48.012;10.968;2023-03-14T15:55:11;6.40;99.90
5834;DHT22;2943;48.012;10.968;2023-03-14T15:57:40;6.40;99.90
5834;DHT22;2943;48.012;10.968;2023-03-14T16:00:09;6.40;99.90
5834;DHT22;2943;48.012;10.968;2023-03-14T16:02:38;6.40;99.90
5834;DHT22;2943;48.012;10.968;2023-03-14T16:05:07;6.40;99.90
5834;DHT22;2943;48.012;10.968;2023-03-14T16:07:34;6.40;99.90
5834;DHT22;2943;48.012;10.968;2023-03-14T16:10:01;6.40;99.90
5834;DHT22;2943;48.012;10.968;2023-03-14T16:12:29;6.30;99.90
5834;DHT22;2943;48.012;10.968;2023-03-14T16:14:55;6.30;99.90